METAR AND TAF INFORMATION
METAR FOR EPBY
ADDS - METARS form results

(1752 UTC 21 March 2019)
Data provider http://aviationweather.gov/metar/data/
 
METAR text: EPBY 211730Z 25015KT 9999 OVC043 12/07 Q1030
Conditions at: EPBY (BYDGOSZCZ , PL) observed 1730 UTC 21 March 2019
Temperature: 12.0°C (54°F)
Dewpoint: 7.0°C (45°F) [RH = 71%]
Pressure (altimeter): 30.41 inches Hg (1030.0 mb)
Winds: from the WSW (250 degrees) at 17 MPH (15 knots; 7.7 m/s)
Visibility: 6 or more miles (10+ km)
Ceiling: 4300 feet AGL
Clouds: overcast cloud deck at 4300 feet AGL
Weather: no significant weather observed at this time

METAR text: EPBY 211700Z 27012KT 9999 OVC025 12/06 Q1030
Conditions at: EPBY (BYDGOSZCZ , PL) observed 1700 UTC 21 March 2019
Temperature: 12.0°C (54°F)
Dewpoint: 6.0°C (43°F) [RH = 67%]
Pressure (altimeter): 30.41 inches Hg (1030.0 mb)
Winds: from the W (270 degrees) at 14 MPH (12 knots; 6.2 m/s)
Visibility: 6 or more miles (10+ km)
Ceiling: 2500 feet AGL
Clouds: overcast cloud deck at 2500 feet AGL
Weather: no significant weather observed at this time

Forecast for: EPBY (BYDGOSZCZ , PL)
Text: TAF EPBY 211730Z 2118/2218 27010KT 9999 BKN025
Forecast period: 1800 UTC 21 March 2019 to 0600 UTC 22 March 2019
Forecast type: FROM: standard forecast or significant change
Winds: from the W (270 degrees) at 12 MPH (10 knots; 5.1 m/s)
Visibility: 6 or more miles 10+ km)
Ceiling: 2500 feet AGL
Clouds: broken clouds at 2500 feet AGL
Weather: no significant weather forecast for this period
Text: PROB30
Forecast period: 0100 to 0600 UTC 22 March 2019
Forecast type: TEMPORARY: The following changes expected for less than half the time period
Visibility: 2.49 miles (4.01 km)
Ceiling: 800 feet AGL
Clouds: broken clouds at 800 feet AGL
broken clouds at 1400 feet AGL
Weather: BR  (mist)
Text: TEMPO 2201/2206 4000 BR BKN008 BKN014
Forecast period: 0600 to 1800 UTC 22 March 2019
Forecast type: BECOMING: Conditions expected to become as follows by 0900 UTC 22 March 2019
Winds: from the NNW (340 degrees) at 12 MPH (10 knots; 5.1 m/s)
Visibility: 6 or more miles 10+ km)
Ceiling: 2500 feet AGL
Clouds: broken clouds at 2500 feet AGL
Weather: no significant weather forecast for this period

 AIRPORT MAP

 RUNWAY INFORMATION
Runway 08 Runway length 8202 ft Runway width 197 ft
Runway elevation 236 ft Runway displaced threshold 0 ft Runway heading 82
Runway 26 Runway length 8202 ft Runway width 197 ft
Runway elevation 233 ft Runway displaced threshold 0 ft Runway heading 262

 AIRPORT FREQUENCIES
Type INFO Name INFO Frequency 128.5 MHZ
Type TWR Name BYDGOSZCZ Frequency 131 MHZ

 AIRPORT NEAR NAVIGATION AIDS
Type NDB Name Bydgoszcz Frequency 109 KHZ
Type NDB Name Bydgoszcz Frequency 534 KHZ



Powered by Virtual Airlines Manager [v2.6.2]